KDDH

William H Morse State Airport

Bennington, Vermont, USA
METAR KDDH 161354Z AUTO 24008KT 10SM FEW032 M06/M12 A2987 RMK AO2 SLP127 T10561117
Observed Flight Rules
Dec-16 @ 13:54 UTC (60 minutes ago) Visual Flight Rules
Wind Visibility Clouds
240° at 8 knots 10 miles
  • Few at 3,200' AGL
Temperatures Readings
Current -6°C / 21°F
Dewpoint -12°C / 10°F
Humidity 63%
Altimeter 29.87" Hg
Pressure 1012.7 hPa
Elevation 244
METAR KDDH 161354Z AUTO 24008KT 10SM FEW032 M06/M12 A2987 RMK AO2 SLP127 T10561117
Observed Flight Rules
Dec-16 @ 13:54 UTC
(60 minutes ago)
VFR
Wind Visibility
240° at 8 knots 10 miles
Clouds
  • Few at 3,200' AGL
Temperature Dewpoint
-6°C / 21°F -12°C / 10°F
Humidity Altimeter Pressure
63% 29.87" Hg 1012.7 hPa